createdAt,value
2022-12-16T00:02:18.254Z,100738.03
2022-12-16T00:05:06.064Z,100741.53
2022-12-16T00:07:52.776Z,100742.63
2022-12-16T00:10:54.959Z,100736.63
2022-12-16T00:13:43.502Z,100685.09
2022-12-16T00:16:30.470Z,100741.69
2022-12-16T00:19:17.239Z,100747.47
2022-12-16T00:22:04.038Z,100749.03
2022-12-16T00:24:50.973Z,100745.44
2022-12-16T00:27:37.873Z,100750.44
2022-12-16T00:30:26.044Z,100750.44
2022-12-16T00:33:13.209Z,100750.72
2022-12-16T00:36:00.012Z,100749.91
2022-12-16T00:38:46.636Z,100753.38
2022-12-16T00:41:33.393Z,100758.91
2022-12-16T00:44:20.249Z,100753.16
2022-12-16T00:47:08.257Z,100758.84
2022-12-16T00:49:57.051Z,100763.81
2022-12-16T00:52:44.165Z,100766.25
2022-12-16T00:55:31.122Z,100771.66
2022-12-16T00:58:18.276Z,100782.16
2022-12-16T01:01:05.797Z,100775.63
2022-12-16T01:03:57.296Z,100792.03
2022-12-16T01:06:44.039Z,100785.13
2022-12-16T01:09:30.695Z,100790.81
2022-12-16T01:12:17.542Z,100794.31
2022-12-16T01:15:06.876Z,100789.38
2022-12-16T01:17:53.656Z,100794.38
2022-12-16T01:20:43.335Z,100788.38
2022-12-16T01:23:30.389Z,100791.59
2022-12-16T01:26:19.004Z,100796.88
2022-12-16T01:29:05.856Z,100807.88
2022-12-16T01:31:52.651Z,100816.97
2022-12-16T01:34:39.459Z,100817.84
2022-12-16T01:37:27.844Z,100817.63
2022-12-16T01:40:19.450Z,100826.31
2022-12-16T01:43:11.513Z,100808.53
2022-12-16T01:46:01.617Z,100810.88
2022-12-16T01:48:52.339Z,100808.50
2022-12-16T01:51:46.081Z,100806.66
2022-12-16T01:54:41.023Z,100796.88
2022-12-16T01:57:34.624Z,100797.09
2022-12-16T02:00:21.583Z,100795.53
2022-12-16T02:03:09.112Z,100795.19
2022-12-16T02:05:56.635Z,100797.13
2022-12-16T02:08:43.356Z,100791.84
2022-12-16T02:12:04.504Z,100793.13
2022-12-16T02:15:14.667Z,100798.50
2022-12-16T02:18:11.920Z,100790.34
2022-12-16T02:21:32.991Z,100780.97
2022-12-16T02:24:46.422Z,100788.66
2022-12-16T02:27:47.079Z,100774.41
2022-12-16T02:31:06.871Z,100788.41
2022-12-16T02:34:06.918Z,100769.81
2022-12-16T02:37:06.859Z,100782.66
2022-12-16T02:40:00.121Z,100782.41
2022-12-16T02:42:50.806Z,100777.53
2022-12-16T02:45:39.954Z,100778.88
2022-12-16T02:48:28.299Z,100773.78
2022-12-16T02:51:15.110Z,100776.16
2022-12-16T02:54:01.864Z,100772.50
2022-12-16T02:57:00.254Z,100766.22
2022-12-16T02:59:55.532Z,100775.19
2022-12-16T03:02:49.653Z,100770.69
2022-12-16T03:05:41.671Z,100771.94
2022-12-16T03:08:34.137Z,100767.94
2022-12-16T03:11:21.519Z,100758.75
2022-12-16T03:14:11.934Z,100704.97
2022-12-16T03:17:00.298Z,100771.47
2022-12-16T03:19:54.587Z,100778.50
2022-12-16T03:22:45.829Z,100779.22
2022-12-16T03:25:35.730Z,100780.66
2022-12-16T03:28:34.020Z,100786.31
2022-12-16T03:31:31.222Z,100782.16
2022-12-16T03:34:26.789Z,100774.16
2022-12-16T03:37:15.581Z,100776.25
2022-12-16T03:40:07.148Z,100778.56
2022-12-16T03:42:55.245Z,100771.69
2022-12-16T03:45:44.148Z,100773.03
2022-12-16T03:48:31.217Z,100766.88
2022-12-16T03:51:18.619Z,100765.19
2022-12-16T03:54:05.638Z,100754.47
2022-12-16T03:56:54.385Z,100757.50
2022-12-16T03:59:41.222Z,100761.28
2022-12-16T04:02:28.252Z,100768.41
2022-12-16T04:05:15.492Z,100758.31
2022-12-16T04:08:02.445Z,100757.66
2022-12-16T04:11:09.969Z,100766.13
2022-12-16T04:14:15.950Z,100758.47
2022-12-16T04:17:20.468Z,100762.06
2022-12-16T04:20:32.627Z,100776.00
2022-12-16T04:23:37.720Z,100762.41
2022-12-16T04:26:24.627Z,100777.91
2022-12-16T04:29:13.200Z,100777.03
2022-12-16T04:32:00.648Z,100782.94
2022-12-16T04:34:46.434Z,100782.06
2022-12-16T04:37:50.467Z,100779.19
2022-12-16T04:40:54.524Z,100783.84
2022-12-16T04:43:59.292Z,100783.59
2022-12-16T04:47:05.372Z,100784.31
2022-12-16T04:50:09.661Z,100782.31
2022-12-16T04:53:13.743Z,100787.50
2022-12-16T04:56:17.939Z,100782.22
2022-12-16T04:59:22.116Z,100791.47
2022-12-16T05:02:27.752Z,100778.22
2022-12-16T05:05:31.780Z,100782.19
2022-12-16T05:08:36.088Z,100789.22
2022-12-16T05:11:40.383Z,100798.25
2022-12-16T05:14:44.431Z,100799.75
2022-12-16T05:17:49.983Z,100802.41
2022-12-16T05:20:54.310Z,100801.41
2022-12-16T05:23:59.418Z,100801.47
2022-12-16T05:27:03.483Z,100811.97
2022-12-16T05:30:07.823Z,100814.72
2022-12-16T05:33:13.325Z,100819.75
2022-12-16T05:36:17.711Z,100820.91
2022-12-16T05:39:22.446Z,100821.31
2022-12-16T05:42:28.902Z,100816.31
2022-12-16T05:45:33.127Z,100825.44
2022-12-16T05:48:40.982Z,100800.28
2022-12-16T05:51:48.595Z,100832.16
2022-12-16T05:54:52.779Z,100834.84
2022-12-16T05:57:56.857Z,100831.03
2022-12-16T06:01:01.331Z,100852.31
2022-12-16T06:04:07.243Z,100860.56
2022-12-16T06:07:11.528Z,100861.53
2022-12-16T06:10:18.904Z,100850.94
2022-12-16T06:13:23.342Z,100869.63
2022-12-16T06:16:27.663Z,100871.06
2022-12-16T06:19:33.045Z,100880.75
2022-12-16T06:22:37.325Z,100892.56
2022-12-16T06:25:41.497Z,100888.66
2022-12-16T06:28:46.301Z,100898.09
2022-12-16T06:31:50.292Z,100907.47
2022-12-16T06:34:55.771Z,100911.75
2022-12-16T06:37:59.919Z,100913.88
2022-12-16T06:41:03.937Z,100915.50
2022-12-16T06:44:08.068Z,100922.00
2022-12-16T06:47:17.868Z,100933.47
2022-12-16T06:50:24.694Z,100927.28
2022-12-16T06:53:28.794Z,100929.94
2022-12-16T06:56:33.152Z,100927.09
2022-12-16T06:59:37.436Z,100930.38
2022-12-16T07:02:41.884Z,100920.41
2022-12-16T07:05:47.121Z,100930.47
2022-12-16T07:08:51.394Z,100934.78
2022-12-16T07:11:55.495Z,100940.59
2022-12-16T07:15:00.108Z,100950.63
2022-12-16T07:18:04.876Z,100948.25
2022-12-16T07:21:10.354Z,100961.41
2022-12-16T07:24:14.411Z,100963.53
2022-12-16T07:27:18.719Z,100968.91
2022-12-16T07:30:24.904Z,100984.34
2022-12-16T07:33:25.708Z,100984.88
2022-12-16T07:36:31.196Z,100990.06
2022-12-16T07:39:35.827Z,101004.38
2022-12-16T07:42:40.001Z,101007.38
2022-12-16T07:45:45.422Z,101001.56
2022-12-16T07:48:49.264Z,101014.25
2022-12-16T07:51:55.158Z,101015.22
2022-12-16T07:54:59.952Z,101020.34
2022-12-16T07:58:08.690Z,101023.06
2022-12-16T08:01:13.112Z,101028.25
2022-12-16T08:04:17.107Z,101030.78
2022-12-16T08:07:23.081Z,100971.34
2022-12-16T08:10:27.773Z,101040.25
2022-12-16T08:13:37.528Z,101030.97
2022-12-16T08:16:38.328Z,101041.00
2022-12-16T08:19:44.941Z,101041.13
2022-12-16T08:22:50.285Z,101044.50
2022-12-16T08:29:43.179Z,101057.22
2022-12-16T08:32:43.847Z,101066.03
2022-12-16T08:35:48.187Z,101061.31
2022-12-16T08:38:53.660Z,101052.88
2022-12-16T08:41:59.836Z,101054.34
2022-12-16T08:45:03.932Z,101057.50
2022-12-16T08:48:08.513Z,101048.63
2022-12-16T08:51:12.549Z,101047.63
2022-12-16T08:54:18.279Z,101046.72
2022-12-16T08:57:22.371Z,101050.75
2022-12-16T09:00:28.320Z,101045.09
2022-12-16T09:03:32.944Z,101040.59
2022-12-16T09:06:40.409Z,101059.75
2022-12-16T09:09:46.906Z,101060.84
2022-12-16T09:12:51.010Z,101052.53
2022-12-16T09:15:56.048Z,101034.66
2022-12-16T09:19:00.495Z,101045.50
2022-12-16T09:22:05.008Z,101051.72
2022-12-16T09:25:10.357Z,101053.75
2022-12-16T09:28:15.232Z,101059.88
2022-12-16T09:31:19.329Z,101054.28
2022-12-16T09:34:24.107Z,101060.69
2022-12-16T09:37:29.520Z,101032.84
2022-12-16T09:40:36.479Z,101060.66
2022-12-16T09:43:58.873Z,101059.50
2022-12-16T09:47:13.546Z,101064.09
2022-12-16T09:50:18.160Z,101055.94
2022-12-16T09:53:25.871Z,101059.38
2022-12-16T09:56:36.525Z,101058.13
2022-12-16T09:59:44.479Z,101059.50
2022-12-16T10:02:48.709Z,101059.16
2022-12-16T10:06:02.698Z,101061.63
2022-12-16T10:09:13.743Z,101060.91
2022-12-16T10:12:31.092Z,101059.75
2022-12-16T10:15:47.889Z,101057.44
2022-12-16T10:19:04.928Z,101056.50
2022-12-16T10:22:16.576Z,101063.78
2022-12-16T10:25:32.016Z,101017.06
2022-12-16T10:28:43.398Z,101052.78
2022-12-16T10:31:49.283Z,101059.09
2022-12-16T10:34:57.325Z,101059.72
2022-12-16T10:38:03.809Z,101065.19
2022-12-16T10:41:12.558Z,101063.44
2022-12-16T10:44:20.648Z,101063.94
2022-12-16T10:47:26.284Z,101064.94
2022-12-16T10:50:34.564Z,101070.22
2022-12-16T10:53:45.970Z,101068.13
2022-12-16T10:57:09.010Z,101070.94
2022-12-16T11:00:29.330Z,101073.19
2022-12-16T11:03:40.142Z,101017.25
2022-12-16T11:06:47.544Z,101078.47
2022-12-16T11:09:53.529Z,101073.94
2022-12-16T11:12:58.928Z,101085.94
2022-12-16T11:16:05.400Z,101082.09
2022-12-16T11:19:11.954Z,101080.38
2022-12-16T11:22:25.732Z,101076.47
2022-12-16T11:25:35.645Z,101084.59
2022-12-16T11:28:42.194Z,101085.34
2022-12-16T11:32:01.228Z,101086.56
2022-12-16T11:35:15.178Z,101091.88
2022-12-16T11:38:25.403Z,101093.91
2022-12-16T11:41:42.604Z,101101.75
2022-12-16T11:44:49.128Z,101095.28
2022-12-16T11:48:00.310Z,101097.19
2022-12-16T11:51:09.977Z,101103.38
2022-12-16T11:54:30.120Z,101073.72
2022-12-16T11:57:41.344Z,101099.38
2022-12-16T12:00:45.509Z,101096.31
2022-12-16T12:04:01.354Z,101099.28
2022-12-16T12:07:21.626Z,101096.50
2022-12-16T12:10:40.880Z,101109.13
2022-12-16T12:14:00.032Z,101097.63
2022-12-16T12:17:20.211Z,101097.31
2022-12-16T12:20:48.458Z,101092.78
2022-12-16T12:24:05.710Z,101106.19
2022-12-16T12:27:16.690Z,101105.75
2022-12-16T12:30:24.532Z,101104.53
2022-12-16T12:33:46.381Z,101105.25
2022-12-16T12:36:57.481Z,101110.03
2022-12-16T12:40:05.753Z,101120.81
2022-12-16T12:43:25.994Z,101120.03
2022-12-16T12:46:35.660Z,101123.31
2022-12-16T12:49:48.438Z,101126.13
2022-12-16T12:53:14.471Z,101130.50
2022-12-16T12:56:27.840Z,101133.78
2022-12-16T12:59:39.136Z,101127.84
2022-12-16T13:02:47.843Z,101125.69
2022-12-16T13:05:56.584Z,101131.13
2022-12-16T13:09:12.507Z,100991.25
2022-12-16T13:12:45.681Z,101136.88
2022-12-16T13:15:54.809Z,101140.28
2022-12-16T13:18:59.009Z,101137.28
2022-12-16T13:22:06.607Z,101147.69
2022-12-16T13:25:12.475Z,101150.56
2022-12-16T13:28:32.283Z,101151.22
2022-12-16T13:31:39.287Z,101155.38
2022-12-16T13:34:48.053Z,101158.63
2022-12-16T13:37:53.236Z,101154.13
2022-12-16T13:41:11.981Z,101172.22
2022-12-16T13:44:18.371Z,101167.03
2022-12-16T13:47:50.268Z,101176.56
2022-12-16T13:50:56.884Z,101177.19
2022-12-16T13:54:06.230Z,101189.72
2022-12-16T13:57:12.047Z,101184.56
2022-12-16T14:00:18.503Z,101187.06
2022-12-16T14:03:28.140Z,101192.31
2022-12-16T14:06:37.696Z,101190.41
2022-12-16T14:09:53.737Z,101204.97
2022-12-16T14:13:11.215Z,101203.31
2022-12-16T14:16:23.647Z,101204.00
2022-12-16T14:19:42.773Z,101205.84
2022-12-16T14:23:10.713Z,101214.97
2022-12-16T14:26:24.779Z,101229.25
2022-12-16T14:29:38.025Z,101234.03
2022-12-16T14:32:47.693Z,101223.63
2022-12-16T14:35:51.843Z,101231.16
2022-12-16T14:39:05.528Z,101231.13
2022-12-16T14:42:10.277Z,101228.47
2022-12-16T14:45:16.056Z,101236.69
2022-12-16T14:48:20.258Z,101232.97
2022-12-16T14:51:50.549Z,101233.41
2022-12-16T14:54:57.490Z,101245.00
2022-12-16T14:58:01.928Z,101241.13
2022-12-16T15:01:15.536Z,101248.44
2022-12-16T15:04:24.436Z,101252.16
2022-12-16T15:07:33.580Z,101252.69
2022-12-16T15:10:41.128Z,101252.56
2022-12-16T15:13:48.000Z,101204.94
2022-12-16T15:19:15.676Z,101250.47
2022-12-16T15:20:31.538Z,101261.47
2022-12-16T15:23:41.261Z,101266.44
2022-12-16T15:26:49.309Z,101270.44
2022-12-16T15:29:55.398Z,101269.41
2022-12-16T15:33:02.408Z,101267.91
2022-12-16T15:36:06.355Z,101277.13
2022-12-16T15:39:10.612Z,101272.72
2022-12-16T15:42:18.227Z,101286.94
2022-12-16T15:45:22.856Z,101277.53
2022-12-16T15:48:37.608Z,101292.44
2022-12-16T15:51:48.241Z,101302.25
2022-12-16T15:54:52.650Z,101299.28
2022-12-16T15:57:57.838Z,101259.81
2022-12-16T16:01:15.675Z,101304.28
2022-12-16T16:04:21.700Z,101304.59
2022-12-16T16:07:34.335Z,101305.06
2022-12-16T16:10:41.549Z,101321.16
2022-12-16T16:13:45.551Z,101323.53
2022-12-16T16:16:49.840Z,101330.38
2022-12-16T16:20:01.628Z,101326.13
2022-12-16T16:23:07.800Z,101321.03
2022-12-16T16:26:11.962Z,101321.78
2022-12-16T16:29:17.264Z,101329.16
2022-12-16T16:32:23.468Z,101336.34
2022-12-16T16:35:37.696Z,101341.22
2022-12-16T16:38:42.121Z,101344.34
2022-12-16T16:41:46.186Z,101342.09
2022-12-16T16:44:51.826Z,101354.28
2022-12-16T16:47:56.902Z,101355.66
2022-12-16T16:51:03.414Z,101358.03
2022-12-16T16:54:08.471Z,101364.91
2022-12-16T16:57:13.493Z,101358.25
2022-12-16T17:00:18.564Z,101364.25
2022-12-16T17:03:23.011Z,101364.25
2022-12-16T17:06:28.426Z,101365.88
2022-12-16T17:09:32.719Z,101363.53
2022-12-16T17:12:39.001Z,101362.66
2022-12-16T17:15:48.295Z,101360.34
2022-12-16T17:18:52.773Z,101364.31
2022-12-16T17:21:58.237Z,101351.69
2022-12-16T17:25:02.400Z,101369.03
2022-12-16T17:28:06.483Z,101366.59
2022-12-16T17:31:16.065Z,101361.94
2022-12-16T17:34:39.890Z,101374.00
2022-12-16T17:37:48.140Z,101382.44
2022-12-16T17:40:52.275Z,101379.63
2022-12-16T17:43:56.469Z,101385.91
2022-12-16T17:47:00.775Z,101381.78
2022-12-16T17:50:16.315Z,101390.47
2022-12-16T17:53:22.121Z,101385.84
2022-12-16T17:56:22.984Z,101386.81
2022-12-16T17:59:27.526Z,101395.00
2022-12-16T18:02:32.196Z,101404.38
2022-12-16T18:05:42.505Z,101401.47
2022-12-16T18:08:51.584Z,101400.59
2022-12-16T18:11:56.617Z,101410.81
2022-12-16T18:15:04.140Z,101418.31
2022-12-16T18:18:09.961Z,101421.28
2022-12-16T18:21:15.608Z,101423.09
2022-12-16T18:24:24.388Z,101420.41
2022-12-16T18:27:28.536Z,101421.53
2022-12-16T18:30:33.836Z,101431.91
2022-12-16T18:33:37.958Z,101433.38
2022-12-16T18:36:42.056Z,101433.09
2022-12-16T18:39:47.483Z,101419.22
2022-12-16T18:42:51.579Z,101433.81
2022-12-16T18:45:55.776Z,101435.31
2022-12-16T18:48:59.790Z,101439.38
2022-12-16T18:52:04.019Z,101444.31
2022-12-16T18:55:12.036Z,101435.38
2022-12-16T18:58:49.164Z,101369.72
2022-12-16T19:01:42.161Z,101450.38
2022-12-16T19:04:46.466Z,101448.06
2022-12-16T19:07:50.598Z,101450.19
2022-12-16T19:10:56.097Z,101455.34
2022-12-16T19:14:00.536Z,101458.00
2022-12-16T19:17:04.649Z,101460.59
2022-12-16T19:20:08.990Z,101460.69
2022-12-16T19:23:13.129Z,101459.59
2022-12-16T19:26:19.403Z,101477.06
2022-12-16T19:29:23.741Z,101475.31
2022-12-16T19:32:28.018Z,101475.69
2022-12-16T19:35:32.282Z,101479.28
2022-12-16T19:38:36.785Z,101476.84
2022-12-16T19:41:42.857Z,101485.72
2022-12-16T19:44:47.142Z,101488.69
2022-12-16T19:47:51.639Z,101486.00
2022-12-16T19:50:57.948Z,101497.41
2022-12-16T19:54:07.425Z,101499.00
2022-12-16T19:57:12.834Z,101495.47
2022-12-16T20:00:17.001Z,101504.78
2022-12-16T20:03:21.222Z,101509.75
2022-12-16T20:06:28.351Z,101512.59
2022-12-16T20:09:32.512Z,101511.56
2022-12-16T20:12:38.216Z,101513.94
2022-12-16T20:15:42.356Z,101509.38
2022-12-16T20:18:46.453Z,101525.16
2022-12-16T20:21:56.168Z,101531.69
2022-12-16T20:25:16.733Z,101525.06
2022-12-16T20:28:25.012Z,101533.59
2022-12-16T20:31:29.500Z,101539.66
2022-12-16T20:34:34.172Z,101545.41
2022-12-16T20:37:46.624Z,101543.59
2022-12-16T20:40:50.437Z,101547.91
2022-12-16T20:43:56.374Z,101556.06
2022-12-16T20:47:00.429Z,101558.63
2022-12-16T20:50:04.626Z,101566.09
2022-12-16T20:53:08.709Z,101567.84
2022-12-16T20:56:13.450Z,101561.47
2022-12-16T20:59:19.220Z,101558.81
2022-12-16T21:02:26.840Z,101560.53
2022-12-16T21:05:34.481Z,101578.34
2022-12-16T21:08:38.499Z,101571.44
2022-12-16T21:11:42.792Z,101575.56
2022-12-16T21:14:48.403Z,101574.63
2022-12-16T21:17:52.611Z,101573.38
2022-12-16T21:20:59.692Z,101586.91
2022-12-16T21:24:05.236Z,101575.03
2022-12-16T21:27:09.342Z,101589.56
2022-12-16T21:30:15.213Z,101598.72
2022-12-16T21:33:19.220Z,101599.97
2022-12-16T21:36:25.390Z,101592.59
2022-12-16T21:39:29.655Z,101602.97
2022-12-16T21:42:36.796Z,101599.22
2022-12-16T21:45:45.159Z,101606.53
2022-12-16T21:48:49.331Z,101607.88
2022-12-16T21:51:53.372Z,101607.63
2022-12-16T21:55:00.510Z,101614.22
2022-12-16T21:58:04.885Z,101618.69
2022-12-16T22:01:14.532Z,101564.06
2022-12-16T22:04:18.595Z,101624.84
2022-12-16T22:07:22.876Z,101611.41
2022-12-16T22:10:39.136Z,101624.84
2022-12-16T22:13:43.098Z,101624.34
2022-12-16T22:16:48.611Z,101630.31
2022-12-16T22:19:56.144Z,101631.75
2022-12-16T22:23:14.997Z,101629.94
2022-12-16T22:26:20.027Z,101619.94
2022-12-16T22:29:24.352Z,101629.53
2022-12-16T22:32:29.748Z,101631.97
2022-12-16T22:35:34.473Z,101635.69
2022-12-16T22:38:38.624Z,101635.13
2022-12-16T22:41:42.967Z,101633.53
2022-12-16T22:44:46.991Z,101639.06
2022-12-16T22:47:52.624Z,101644.72
2022-12-16T22:50:58.766Z,101648.38
2022-12-16T22:54:03.175Z,101650.50
2022-12-16T22:57:07.362Z,101652.53
2022-12-16T23:00:11.622Z,101653.19
2022-12-16T23:03:17.344Z,101656.69
2022-12-16T23:06:21.944Z,101650.44
2022-12-16T23:09:26.143Z,101661.00
2022-12-16T23:12:30.364Z,101652.53
2022-12-16T23:15:35.174Z,101665.59
2022-12-16T23:18:40.496Z,101659.47
2022-12-16T23:21:45.136Z,101659.28
2022-12-16T23:24:49.934Z,101662.84
2022-12-16T23:27:54.101Z,101664.81
2022-12-16T23:30:58.307Z,101660.53
2022-12-16T23:34:03.744Z,101666.28
2022-12-16T23:37:07.896Z,101663.78
2022-12-16T23:40:11.997Z,101662.97
2022-12-16T23:43:16.167Z,101655.78
2022-12-16T23:46:20.481Z,101661.09
2022-12-16T23:49:26.865Z,101660.66
2022-12-16T23:52:30.941Z,101672.19
2022-12-16T23:55:35.677Z,101666.75
2022-12-16T23:58:45.181Z,101671.41
